Time;durP1;ratioP1;P1;durP2;ratioP2;P2;SDS_P1;SDS_P2;PMS_P1;PMS_P2;Temp;Humidity;BMP_temperature;BMP_pressure;BME280_temperature;BME280_humidity;BME280_pressure;Samples;Min_cycle;Max_cycle;Signal;HPM_P1;HPM_P2
2022/03/18 00:02:00;;;;;;;13.77;7.20;;;;;;;0.77;66.89;98882.72;6273851;22;20184;-82
2022/03/18 00:04:28;;;;;;;12.97;7.73;;;;;;;0.97;67.36;98918.84;6220479;22;20179;-86
2022/03/18 00:06:55;;;;;;;12.30;6.90;;;;;;;0.69;66.57;98873.16;6246321;22;20202;-82
2022/03/18 00:09:22;;;;;;;11.73;6.50;;;;;;;0.64;67.28;98888.34;6221152;22;20173;-83
2022/03/18 00:11:50;;;;;;;13.87;7.57;;;;;;;0.94;67.06;98923.03;6247574;22;20173;-85
2022/03/18 00:14:19;;;;;;;11.63;6.93;;;;;;;0.40;67.39;98856.34;6246264;22;20172;-80
2022/03/18 00:16:47;;;;;;;14.07;7.30;;;;;;;0.67;67.62;98925.81;6218745;22;20179;-81
2022/03/18 00:19:15;;;;;;;16.13;8.87;;;;;;;0.17;69.90;98867.69;6220069;22;20173;-82
2022/03/18 00:21:43;;;;;;;13.30;7.27;;;;;;;0.60;68.97;98927.34;6219374;22;20256;-88
2022/03/18 00:24:10;;;;;;;11.17;6.50;;;;;;;0.47;68.73;98904.09;6220514;22;20220;-85
2022/03/18 00:26:37;;;;;;;13.03;5.20;;;;;;;0.16;70.01;98907.59;6272494;22;20167;-82
2022/03/18 00:29:04;;;;;;;7.73;5.53;;;;;;;0.10;69.50;98910.00;6275227;22;20156;-85
2022/03/18 00:31:33;;;;;;;11.00;6.30;;;;;;;0.29;69.81;98903.66;6248744;22;20176;-81
2022/03/18 00:34:01;;;;;;;7.70;5.40;;;;;;;0.09;69.60;98887.88;6252045;22;20231;-87
2022/03/18 00:36:29;;;;;;;8.73;5.63;;;;;;;0.25;69.28;98901.88;6268699;22;20252;-83
2022/03/18 00:38:56;;;;;;;7.90;4.87;;;;;;;-0.02;69.42;98869.78;6255119;22;20255;-88
2022/03/18 00:41:24;;;;;;;7.43;5.37;;;;;;;0.21;68.84;98874.56;6263319;22;20175;-88
2022/03/18 00:43:52;;;;;;;21.83;5.07;;;;;;;0.54;67.90;98891.53;6235313;22;20188;-85
2022/03/18 00:46:23;;;;;;;8.37;5.27;;;;;;;0.24;68.25;98884.84;6275816;22;20251;-79
2022/03/18 00:54:22;;;;;;;9.83;5.20;;;;;;;0.70;67.55;98897.84;6277219;22;20188;-84
2022/03/18 00:56:51;;;;;;;9.47;5.60;;;;;;;0.72;67.48;98907.22;6243260;22;20183;-80
2022/03/18 00:59:18;;;;;;;6.97;5.10;;;;;;;0.37;67.59;98874.97;6244484;22;20161;-80
2022/03/18 01:01:45;;;;;;;10.70;5.77;;;;;;;0.27;67.71;98884.94;6270727;22;20169;-80
2022/03/18 01:04:13;;;;;;;13.20;6.37;;;;;;;0.26;68.24;98875.56;6270276;22;20160;-80
2022/03/18 01:06:40;;;;;;;12.87;6.97;;;;;;;0.42;68.97;98898.03;6246054;22;20169;-83
2022/03/18 01:09:07;;;;;;;14.83;7.47;;;;;;;0.43;68.73;98900.63;6244631;22;20196;-83
2022/03/18 01:11:35;;;;;;;12.27;6.50;;;;;;;0.30;68.40;98888.41;6244699;22;20497;-86
2022/03/18 01:14:02;;;;;;;11.60;6.67;;;;;;;0.22;69.00;98886.50;6217626;22;20199;-81
2022/03/18 01:16:29;;;;;;;10.70;6.17;;;;;;;0.40;69.73;98938.75;6244390;22;20172;-80
2022/03/18 01:18:56;;;;;;;11.90;6.23;;;;;;;0.29;69.96;98959.72;6272562;22;20176;-80
2022/03/18 01:21:23;;;;;;;11.43;6.70;;;;;;;-0.44;69.79;98878.00;6244885;22;20167;-87
2022/03/18 01:23:51;;;;;;;9.60;6.13;;;;;;;-0.23;71.60;98960.88;6219365;22;20620;-85
2022/03/18 01:26:18;;;;;;;9.97;6.00;;;;;;;-0.76;72.23;98866.94;6269864;22;20614;-85
2022/03/18 01:28:46;;;;;;;17.33;7.80;;;;;;;-0.39;71.91;98943.47;6270787;22;20204;-83
2022/03/18 01:31:13;;;;;;;12.97;6.90;;;;;;;-0.70;72.76;98914.59;6269253;22;20192;-89
2022/03/18 01:33:40;;;;;;;14.87;7.27;;;;;;;-0.93;72.23;98916.50;6243632;22;20184;-82
2022/03/18 01:36:08;;;;;;;11.43;6.90;;;;;;;-1.26;72.09;98880.78;6217644;22;20609;-83
2022/03/18 01:38:35;;;;;;;10.30;6.43;;;;;;;-1.04;69.81;98889.88;6243610;22;20203;-81
2022/03/18 01:41:02;;;;;;;10.43;6.50;;;;;;;-0.53;67.40;98954.94;6271333;22;20163;-85
2022/03/18 01:43:41;;;;;;;13.40;6.30;;;;;;;-0.29;68.45;98942.06;6269484;22;20250;-84
2022/03/18 01:46:09;;;;;;;8.47;5.60;;;;;;;-0.11;68.08;98951.03;6244177;22;20679;-82
2022/03/18 01:48:38;;;;;;;11.77;6.00;;;;;;;-0.20;67.32;98921.91;6268961;22;20223;-87
2022/03/18 01:51:07;;;;;;;9.77;5.60;;;;;;;-0.05;65.87;98925.75;6218535;22;20654;-82
2022/03/18 01:53:37;;;;;;;13.33;7.83;;;;;;;-0.12;66.55;98923.84;6242459;22;20673;-81
2022/03/18 01:56:06;;;;;;;10.00;6.47;;;;;;;-0.52;67.77;98854.06;6269910;22;20174;-81
2022/03/18 01:58:33;;;;;;;7.90;5.50;;;;;;;-0.61;65.67;98886.88;6243760;22;20255;-84
2022/03/18 02:01:02;;;;;;;10.37;5.10;;;;;;;-0.70;64.54;98905.28;6241797;22;20186;-81
2022/03/18 02:03:30;;;;;;;8.37;4.83;;;;;;;-0.65;61.58;98926.63;6244070;22;20165;-88
2022/03/18 02:06:01;;;;;;;7.73;5.10;;;;;;;-0.38;61.08;98965.56;6217510;22;20257;-82
2022/03/18 02:08:31;;;;;;;8.40;5.50;;;;;;;-0.29;59.07;98975.13;6194080;22;20200;-81
2022/03/18 02:10:58;;;;;;;8.40;4.73;;;;;;;-0.48;58.31;98968.69;6242540;22;20196;-81
2022/03/18 02:13:25;;;;;;;7.63;3.93;;;;;;;-0.96;54.00;98866.41;6192599;22;20193;-86
2022/03/18 02:15:53;;;;;;;6.73;3.60;;;;;;;-0.22;48.33;98971.94;6221272;22;20175;-81
2022/03/18 02:18:20;;;;;;;7.23;4.07;;;;;;;-0.35;49.49;98913.91;6246042;22;20164;-85
2022/03/18 02:20:47;;;;;;;5.47;4.30;;;;;;;-0.24;50.87;98913.34;6248075;22;20231;-83
2022/03/18 02:23:17;;;;;;;6.70;4.80;;;;;;;-0.03;53.58;98933.41;6272565;22;20269;-85
2022/03/18 02:25:46;;;;;;;7.73;4.47;;;;;;;-0.14;51.08;98966.22;6248676;22;20181;-86
2022/03/18 02:28:14;;;;;;;5.87;3.63;;;;;;;-0.65;50.44;98873.22;6245678;22;20571;-82
2022/03/18 02:30:42;;;;;;;7.47;3.77;;;;;;;-0.32;49.58;98985.22;6271567;22;20655;-88
2022/03/18 02:33:11;;;;;;;7.70;4.23;;;;;;;-0.39;47.12;98950.25;6194727;22;20215;-82
2022/03/18 02:35:42;;;;;;;7.70;4.30;;;;;;;-0.53;48.49;98919.34;6242732;22;20192;-83
2022/03/18 02:38:10;;;;;;;7.97;4.00;;;;;;;-0.82;48.19;98873.56;6194839;22;20196;-88
2022/03/18 02:40:37;;;;;;;7.33;3.87;;;;;;;-0.24;47.58;98951.53;6192483;22;20244;-82
2022/03/18 02:43:05;;;;;;;7.13;4.40;;;;;;;-0.91;48.36;98818.25;6219683;22;20526;-84
2022/03/18 02:45:43;;;;;;;5.07;3.77;;;;;;;-0.08;48.46;98915.47;6193564;22;20176;-82
2022/03/18 02:48:13;;;;;;;9.17;4.43;;;;;;;-0.24;47.47;98870.06;6193333;22;20206;-88
2022/03/18 02:50:44;;;;;;;6.87;4.53;;;;;;;-0.31;48.48;98834.25;6192290;22;20195;-84
2022/03/18 02:53:15;;;;;;;6.23;4.00;;;;;;;0.05;47.55;98885.22;6192035;22;20195;-81
2022/03/18 02:55:47;;;;;;;6.67;4.80;;;;;;;-0.04;49.52;98894.34;6219071;22;20192;-84
2022/03/18 02:58:15;;;;;;;6.93;4.27;;;;;;;0.05;49.47;98926.84;6190609;22;20247;-87
2022/03/18 03:00:47;;;;;;;7.40;4.37;;;;;;;0.31;49.06;98970.81;6243286;22;20707;-89
2022/03/18 03:03:18;;;;;;;7.87;4.50;;;;;;;-0.24;49.03;98857.34;6191794;22;20172;-83
2022/03/18 03:08:31;;;;;;;7.97;4.93;;;;;;;0.49;49.39;98995.06;6243127;22;20222;-81
2022/03/18 03:11:01;;;;;;;9.40;4.33;;;;;;;0.22;47.85;98980.75;6216862;22;20559;-84
2022/03/18 03:13:28;;;;;;;9.23;5.03;;;;;;;-0.04;47.56;98978.38;6244222;22;20192;-84
2022/03/18 03:15:56;;;;;;;8.63;4.50;;;;;;;-0.23;47.62;98937.97;6241202;22;20169;-88
2022/03/18 03:18:23;;;;;;;9.03;4.77;;;;;;;-0.21;48.68;98933.81;6243377;22;20251;-85
2022/03/18 03:20:51;;;;;;;8.10;4.87;;;;;;;-0.03;49.77;98952.09;6192160;22;20169;-81
2022/03/18 03:23:19;;;;;;;5.80;4.73;;;;;;;0.25;49.61;98988.50;6219432;22;20251;-86
2022/03/18 03:25:48;;;;;;;7.20;4.80;;;;;;;0.23;49.44;98978.22;6220602;22;20251;-80
2022/03/18 03:28:19;;;;;;;6.67;4.27;;;;;;;0.10;48.57;98981.31;6194628;22;20219;-83
2022/03/18 03:30:48;;;;;;;9.33;4.70;;;;;;;-0.01;48.05;99003.94;6221237;22;20183;-82
2022/03/18 03:33:16;;;;;;;6.37;4.97;;;;;;;0.11;48.51;98994.88;6245666;22;20680;-84
2022/03/18 03:35:44;;;;;;;9.23;4.90;;;;;;;-0.12;48.46;98997.69;6247417;22;20195;-87
2022/03/18 03:38:15;;;;;;;4.67;3.73;;;;;;;-0.13;45.34;99031.63;6223154;22;20199;-83
2022/03/18 03:40:43;;;;;;;7.60;4.00;;;;;;;-0.17;45.78;99032.34;6248290;22;20553;-87
2022/03/18 03:43:10;;;;;;;8.10;4.90;;;;;;;-0.62;47.31;98975.06;6222347;22;20176;-85
2022/03/18 03:45:38;;;;;;;5.23;3.87;;;;;;;-0.41;46.01;99016.34;6243665;22;20606;-84
2022/03/18 03:48:07;;;;;;;6.73;3.50;;;;;;;-0.26;45.36;99037.16;6243804;22;20196;-90
2022/03/18 03:50:34;;;;;;;5.57;3.67;;;;;;;-0.18;45.18;99028.06;6217403;22;20636;-87
2022/03/18 03:53:02;;;;;;;12.43;6.00;;;;;;;-0.19;48.96;98985.63;6244380;22;20235;-88
2022/03/18 03:55:34;;;;;;;12.77;6.43;;;;;;;0.01;49.78;99006.50;6241709;22;20210;-84
2022/03/18 03:58:01;;;;;;;16.57;6.50;;;;;;;-0.01;49.43;98988.66;6243720;22;20164;-91
2022/03/18 04:00:28;;;;;;;10.00;5.67;;;;;;;0.08;51.58;99031.34;6218367;22;20605;-84
2022/03/18 04:02:56;;;;;;;7.93;5.00;;;;;;;0.01;50.47;99016.69;6243952;22;20168;-84
2022/03/18 04:05:23;;;;;;;6.73;4.60;;;;;;;0.13;50.39;99056.91;6220458;22;20532;-87
2022/03/18 04:07:51;;;;;;;6.47;4.43;;;;;;;-0.19;49.86;99002.56;6218541;22;20177;-88
2022/03/18 04:10:19;;;;;;;9.43;5.10;;;;;;;-0.09;51.70;99045.28;6272265;22;20226;-86
2022/03/18 04:12:46;;;;;;;10.17;5.97;;;;;;;0.02;51.32;99049.00;6243403;22;20613;-81
2022/03/18 04:15:13;;;;;;;9.30;6.03;;;;;;;-0.06;50.18;99041.13;6245143;22;20173;-86
2022/03/18 04:17:43;;;;;;;8.97;6.03;;;;;;;-0.13;49.89;99023.97;6248069;22;20179;-84
2022/03/18 04:20:22;;;;;;;16.60;7.77;;;;;;;0.00;50.73;99041.28;6272805;22;20165;-85
2022/03/18 04:22:50;;;;;;;10.47;6.87;;;;;;;-0.02;51.04;99036.97;6246756;22;20620;-83
2022/03/18 04:25:20;;;;;;;17.67;7.50;;;;;;;0.21;51.14;99065.63;6250422;22;20263;-88
2022/03/18 04:27:49;;;;;;;6.60;4.03;;;;;;;0.09;46.71;99063.59;6277340;22;20210;-88
2022/03/18 04:30:18;;;;;;;6.80;4.23;;;;;;;-0.34;45.69;99010.63;6222537;22;20547;-85
2022/03/18 04:32:45;;;;;;;8.40;4.53;;;;;;;-0.47;47.03;99020.41;6272375;22;20173;-80
2022/03/18 04:35:12;;;;;;;7.13;4.23;;;;;;;-0.31;48.09;99042.97;6244775;22;20205;-82
2022/03/18 04:37:40;;;;;;;9.17;5.43;;;;;;;-0.30;48.03;99024.31;6272607;22;20165;-81
2022/03/18 04:40:12;;;;;;;7.63;5.43;;;;;;;-0.41;47.19;99049.44;6270972;22;20179;-83
2022/03/18 04:42:40;;;;;;;8.47;6.10;;;;;;;-0.47;49.06;99050.94;6248655;22;20190;-79
2022/03/18 04:45:08;;;;;;;9.40;4.90;;;;;;;-0.78;49.35;99013.56;6247521;22;20165;-82
2022/03/18 04:47:35;;;;;;;10.17;5.67;;;;;;;-0.13;48.30;99084.19;6244400;22;20160;-81
2022/03/18 04:50:04;;;;;;;12.57;5.73;;;;;;;-0.15;49.00;99060.38;6270704;22;20197;-83
2022/03/18 04:52:31;;;;;;;8.37;5.13;;;;;;;-0.18;49.79;99020.44;6270835;22;20239;-83
2022/03/18 04:54:58;;;;;;;12.03;6.37;;;;;;;0.18;48.88;99055.38;6271633;22;20169;-82
2022/03/18 04:57:26;;;;;;;14.30;9.10;;;;;;;0.49;48.30;99091.91;6270559;22;20168;-83
2022/03/18 04:59:54;;;;;;;16.87;7.90;;;;;;;-0.21;47.91;99020.34;6219263;22;20180;-85
2022/03/18 05:02:29;;;;;;;14.20;7.07;;;;;;;0.38;48.97;99084.78;6218300;22;20172;-90
2022/03/18 05:04:56;;;;;;;11.27;6.87;;;;;;;0.30;47.96;99035.31;6271088;22;20217;-85
2022/03/18 05:07:25;;;;;;;10.47;7.23;;;;;;;0.90;47.76;99092.09;6243411;22;20164;-83
2022/03/18 05:09:54;;;;;;;14.43;7.37;;;;;;;0.71;47.61;99034.66;6218461;22;20246;-88
2022/03/18 05:12:21;;;;;;;10.37;6.40;;;;;;;1.12;47.45;99054.38;6219005;22;20177;-85
2022/03/18 05:14:53;;;;;;;11.47;7.13;;;;;;;1.46;47.46;99100.25;6193247;22;20258;-84
2022/03/18 05:17:20;;;;;;;11.47;6.90;;;;;;;1.33;46.88;99067.66;6219888;22;20168;-85
2022/03/18 05:19:47;;;;;;;13.80;7.07;;;;;;;1.67;46.90;99099.03;6243223;22;20192;-89
2022/03/18 05:22:18;;;;;;;11.70;7.07;;;;;;;1.40;46.03;99040.56;6244987;22;20193;-87
2022/03/18 05:24:45;;;;;;;14.70;9.30;;;;;;;1.44;45.49;99033.00;6218132;22;20190;-83
2022/03/18 05:27:13;;;;;;;11.53;6.70;;;;;;;1.60;44.53;99045.28;6219596;22;20218;-89
2022/03/18 05:29:44;;;;;;;20.73;7.17;;;;;;;1.59;44.03;99052.88;6245753;22;20242;-85
2022/03/18 05:32:13;;;;;;;14.17;7.30;;;;;;;1.55;44.14;99018.78;6243037;22;20161;-86
2022/03/18 05:34:41;;;;;;;16.87;7.50;;;;;;;1.95;44.08;99083.47;6218400;22;20233;-85
2022/03/18 05:37:08;;;;;;;16.37;9.33;;;;;;;2.12;44.28;99117.91;6217583;22;20196;-82
2022/03/18 05:39:35;;;;;;;16.90;8.33;;;;;;;1.62;44.30;99047.88;6194487;22;20172;-85
2022/03/18 05:42:04;;;;;;;16.43;8.27;;;;;;;1.82;44.00;99071.25;6219211;22;20172;-82
2022/03/18 05:44:33;;;;;;;19.00;10.73;;;;;;;2.24;45.53;99128.38;6220174;22;20172;-86
2022/03/18 05:47:06;;;;;;;20.63;9.13;;;;;;;1.98;45.29;99119.31;6246950;22;20222;-81
2022/03/18 05:49:33;;;;;;;12.60;6.93;;;;;;;1.94;42.11;99104.75;6193003;22;20200;-82
2022/03/18 05:52:08;;;;;;;12.77;7.03;;;;;;;1.86;41.58;99094.34;6246006;22;20175;-82
2022/03/18 05:54:36;;;;;;;9.13;5.40;;;;;;;0.75;41.04;99036.47;6217051;22;20176;-85
2022/03/18 05:57:10;;;;;;;8.93;4.73;;;;;;;0.22;40.26;99026.59;6196443;22;20852;-85
2022/03/18 05:59:43;;;;;;;7.00;4.67;;;;;;;0.37;40.90;99083.91;6216984;22;20222;-88
2022/03/18 06:02:13;;;;;;;7.43;4.63;;;;;;;0.42;40.98;99092.56;6219425;22;20621;-83
2022/03/18 06:04:42;;;;;;;9.77;6.27;;;;;;;0.56;41.32;99064.88;6242998;22;20204;-82
2022/03/18 06:07:13;;;;;;;12.70;6.33;;;;;;;1.08;41.70;99128.25;6219741;22;20259;-84
2022/03/18 06:12:30;;;;;;;9.17;5.10;;;;;;;0.13;40.03;99044.16;6269560;22;20167;-81
2022/03/18 06:14:58;;;;;;;7.50;4.90;;;;;;;0.45;40.82;99074.81;6218961;22;20208;-83
2022/03/18 06:17:26;;;;;;;13.23;6.10;;;;;;;0.36;40.04;99071.13;6220213;22;20220;-83
2022/03/18 06:19:54;;;;;;;25.83;11.57;;;;;;;0.35;40.17;99065.16;6243250;22;20176;-87
2022/03/18 06:22:23;;;;;;;8.03;5.37;;;;;;;1.06;40.61;99157.94;6202793;22;20168;-81
2022/03/18 06:24:50;;;;;;;8.13;4.77;;;;;;;0.70;40.74;99045.72;6235775;22;20160;-83
2022/03/18 06:27:17;;;;;;;7.10;4.50;;;;;;;1.46;39.35;99170.88;6205464;22;20169;-83
2022/03/18 06:29:44;;;;;;;10.10;4.63;;;;;;;1.16;39.33;99104.66;6223896;22;20264;-82
2022/03/18 06:32:13;;;;;;;6.67;4.50;;;;;;;1.30;38.92;99054.78;6220881;22;20230;-86
2022/03/18 06:34:40;;;;;;;7.33;4.30;;;;;;;1.97;37.37;99143.09;6242090;22;20273;-83
2022/03/18 06:37:09;;;;;;;9.07;5.57;;;;;;;1.58;38.23;99103.13;6244283;22;20225;-82
2022/03/18 06:39:37;;;;;;;8.00;4.43;;;;;;;1.84;37.66;99156.44;6243136;22;20614;-85
2022/03/18 06:42:06;;;;;;;6.97;4.53;;;;;;;0.90;38.84;99071.69;6220607;22;20175;-87
2022/03/18 06:44:36;;;;;;;7.37;3.93;;;;;;;1.12;39.24;99155.56;6277709;22;20161;-82
2022/03/18 06:47:54;;;;;;;5.43;4.13;;;;;;;0.90;38.38;99092.97;6214119;23;20178;-82
2022/03/18 06:50:25;;;;;;;6.73;4.87;;;;;;;0.93;39.36;99112.59;6135448;23;20284;-85
2022/03/18 06:52:53;;;;;;;8.10;4.73;;;;;;;1.18;38.67;99171.88;6180936;23;20618;-87
2022/03/18 06:55:22;;;;;;;7.23;3.90;;;;;;;0.93;39.15;99195.03;6182635;23;20261;-86
2022/03/18 06:57:49;;;;;;;5.67;4.50;;;;;;;1.03;39.70;99153.63;6183130;23;20174;-82
2022/03/18 07:00:33;;;;;;;6.57;3.90;;;;;;;0.97;38.47;99082.06;6180896;23;20173;-82
2022/03/18 07:03:00;;;;;;;24.10;8.60;;;;;;;1.33;38.75;99168.84;6161601;23;20634;-85
2022/03/18 07:05:32;;;;;;;6.10;4.40;;;;;;;1.63;38.31;99188.31;6158581;23;20170;-87
2022/03/18 07:08:01;;;;;;;6.93;4.83;;;;;;;1.37;38.45;99123.03;6210533;23;20177;-86
2022/03/18 07:10:29;;;;;;;10.20;5.43;;;;;;;1.29;37.74;99151.75;6135141;23;20224;-82
2022/03/18 07:12:58;;;;;;;7.90;4.57;;;;;;;1.54;37.86;99183.00;6158000;23;20177;-90
2022/03/18 07:15:32;;;;;;;8.20;5.27;;;;;;;1.84;39.09;99176.88;6160671;23;20676;-84
2022/03/18 07:18:52;;;;;;;8.50;5.70;;;;;;;1.51;38.85;99170.16;6134362;23;20178;-83
2022/03/18 07:21:36;;;;;;;6.10;4.77;;;;;;;1.03;38.65;99092.41;6124480;23;20182;-84
2022/03/18 07:24:33;;;;;;;12.50;6.30;;;;;;;1.65;38.16;99188.34;6152371;23;20177;-84
2022/03/18 07:27:01;;;;;;;6.47;4.47;;;;;;;1.81;38.39;99190.47;6160464;23;20180;-84
2022/03/18 07:29:28;;;;;;;7.57;4.40;;;;;;;1.80;36.78;99182.72;6183914;23;20208;-84
2022/03/18 07:31:55;;;;;;;6.70;4.47;;;;;;;1.39;37.96;99116.28;6138634;23;20173;-84
2022/03/18 07:34:26;;;;;;;5.87;4.60;;;;;;;1.43;37.46;99123.19;6181770;23;20198;-85
2022/03/18 07:36:53;;;;;;;4.87;3.87;;;;;;;1.34;36.94;99122.09;6181308;23;20169;-88
2022/03/18 07:39:24;;;;;;;10.37;5.20;;;;;;;1.74;37.70;99140.06;6157838;23;20177;-86
2022/03/18 07:41:51;;;;;;;6.90;3.90;;;;;;;1.99;37.36;99200.22;6175730;23;20181;-84
2022/03/18 07:44:18;;;;;;;8.70;5.13;;;;;;;1.82;38.49;99193.84;6176237;23;20173;-84
2022/03/18 07:46:48;;;;;;;13.20;6.47;;;;;;;1.49;37.57;99153.94;6180932;23;20285;-84
2022/03/18 07:49:15;;;;;;;7.03;4.87;;;;;;;1.49;37.75;99158.19;6157803;23;20229;-82
2022/03/18 07:51:43;;;;;;;4.93;3.33;;;;;;;1.57;38.06;99198.38;6156910;23;20180;-82
2022/03/18 07:54:11;;;;;;;9.93;5.10;;;;;;;1.43;38.83;99150.38;6158880;23;20166;-88
2022/03/18 07:56:38;;;;;;;4.60;3.93;;;;;;;1.67;38.60;99193.50;6208912;23;20273;-82
2022/03/18 07:59:07;;;;;;;6.00;3.63;;;;;;;1.07;38.74;99101.03;6159680;23;20300;-84
2022/03/18 08:01:35;;;;;;;8.27;3.93;;;;;;;1.61;37.71;99202.75;6195313;22;20177;-87
2022/03/18 08:04:03;;;;;;;6.53;4.30;;;;;;;0.89;39.17;99139.66;6216814;22;20250;-86
2022/03/18 08:06:30;;;;;;;5.57;3.77;;;;;;;1.07;38.57;99116.34;6218815;22;20169;-87
2022/03/18 08:09:01;;;;;;;6.83;4.30;;;;;;;1.18;39.27;99120.84;6216961;22;20196;-82
2022/03/18 08:11:30;;;;;;;6.43;3.77;;;;;;;1.04;38.11;99132.41;6243682;22;20192;-89
2022/03/18 08:13:58;;;;;;;6.63;4.03;;;;;;;1.56;38.78;99211.13;6216683;22;20663;-82
2022/03/18 08:16:27;;;;;;;6.87;4.30;;;;;;;1.44;38.91;99160.63;6217188;22;20652;-83
2022/03/18 08:18:57;;;;;;;8.63;5.17;;;;;;;1.56;39.43;99119.22;6243254;22;20161;-82
2022/03/18 08:21:25;;;;;;;6.17;4.23;;;;;;;1.37;39.39;99086.44;6269748;22;20156;-84
2022/03/18 08:23:52;;;;;;;6.47;4.07;;;;;;;1.61;37.41;99118.47;6193358;22;20268;-89
2022/03/18 08:26:20;;;;;;;6.90;4.67;;;;;;;1.91;39.41;99158.31;6241446;22;20233;-85
2022/03/18 08:28:49;;;;;;;9.40;5.40;;;;;;;2.29;39.14;99175.31;6219144;22;20216;-82
2022/03/18 08:31:17;;;;;;;5.30;3.60;;;;;;;1.87;37.66;99106.31;6220444;22;20160;-80
2022/03/18 08:33:48;;;;;;;5.53;3.90;;;;;;;1.71;38.48;99185.09;6220289;22;20249;-82
2022/03/18 08:36:19;;;;;;;9.93;5.63;;;;;;;1.64;38.45;99123.69;6222820;22;20192;-84
2022/03/18 08:38:47;;;;;;;7.20;3.87;;;;;;;1.90;37.99;99165.09;6244536;22;20260;-88
2022/03/18 08:41:14;;;;;;;5.47;3.93;;;;;;;1.41;38.51;99109.50;6197003;22;20164;-86
2022/03/18 08:43:42;;;;;;;5.03;2.97;;;;;;;1.72;36.68;99161.28;6219652;22;20655;-84
2022/03/18 08:46:10;;;;;;;6.57;3.50;;;;;;;2.12;37.12;99180.06;6221194;22;20214;-87
2022/03/18 08:48:43;;;;;;;5.87;4.13;;;;;;;1.90;37.16;99091.03;6220193;22;20195;-83
2022/03/18 08:51:25;;;;;;;6.87;4.20;;;;;;;2.07;36.89;99078.59;6226089;22;20169;-84
2022/03/18 08:54:05;;;;;;;7.73;6.33;;;;;;;2.47;36.67;99119.47;6222579;22;20169;-81
2022/03/18 08:56:37;;;;;;;6.53;4.30;;;;;;;2.81;36.28;99154.19;6245203;22;20181;-85
2022/03/18 08:59:08;;;;;;;4.37;3.27;;;;;;;2.80;35.52;99138.00;6220806;22;20515;-85
2022/03/18 09:01:37;;;;;;;5.37;3.57;;;;;;;2.80;35.52;99157.59;6217583;22;20517;-85
2022/03/18 09:04:07;;;;;;;4.73;3.50;;;;;;;2.44;34.91;99064.00;6221744;22;20176;-83
2022/03/18 09:07:02;;;;;;;5.43;3.10;;;;;;;2.87;34.67;99149.19;6244616;22;20195;-84
2022/03/18 09:09:36;;;;;;;3.57;2.63;;;;;;;1.79;33.94;99061.00;6272497;22;20217;-83
2022/03/18 09:12:04;;;;;;;5.50;3.00;;;;;;;1.93;32.94;99080.00;6193602;22;20646;-80
2022/03/18 09:14:33;;;;;;;4.50;3.27;;;;;;;1.80;33.81;99070.34;6193126;22;20619;-85
2022/03/18 09:18:00;;;;;;;3.43;3.00;;;;;;;2.39;32.71;99149.13;6199800;22;20597;-84
2022/03/18 09:21:17;;;;;;;3.50;2.70;;;;;;;2.25;33.40;99107.06;6279908;22;20554;-82
2022/03/18 09:24:03;;;;;;;3.03;2.40;;;;;;;2.47;32.50;99101.56;6243241;22;20256;-88
2022/03/18 09:26:31;;;;;;;3.77;2.60;;;;;;;2.62;33.14;99086.50;6194967;22;20658;-87
2022/03/18 09:29:00;;;;;;;9.43;5.03;;;;;;;3.04;33.20;99124.75;6243929;22;20196;-83
2022/03/18 09:31:31;;;;;;;4.90;3.77;;;;;;;2.81;33.68;99054.41;6220383;22;20240;-84
2022/03/18 09:33:58;;;;;;;6.37;3.80;;;;;;;2.59;33.96;99040.41;6243234;22;20164;-84
2022/03/18 09:36:27;;;;;;;4.37;2.93;;;;;;;2.59;33.27;99054.88;6220498;22;20192;-81
2022/03/18 09:38:55;;;;;;;4.63;3.03;;;;;;;2.76;33.22;99084.19;6218928;22;20259;-81
2022/03/18 09:41:22;;;;;;;8.67;4.13;;;;;;;2.81;33.31;99074.88;6244671;22;20157;-88
2022/03/18 09:43:52;;;;;;;2.43;2.03;;;;;;;2.64;33.85;99102.72;6245948;22;20179;-86
2022/03/18 09:46:20;;;;;;;5.13;3.00;;;;;;;2.76;34.37;99100.38;6221899;22;20172;-83
2022/03/18 09:49:06;;;;;;;4.80;3.40;;;;;;;2.82;34.44;99145.69;6249788;22;20626;-85
2022/03/18 09:51:34;;;;;;;3.73;3.30;;;;;;;2.58;35.01;99092.38;6223306;22;20165;-82
2022/03/18 09:54:28;;;;;;;6.90;3.37;;;;;;;2.63;34.41;99090.78;6222395;22;20713;-84
2022/03/18 09:57:00;;;;;;;3.87;2.60;;;;;;;2.83;35.53;99147.41;6222676;22;20591;-85
2022/03/18 09:59:30;;;;;;;5.80;2.90;;;;;;;2.23;35.63;99061.03;6220573;22;20180;-85
2022/03/18 10:02:23;;;;;;;3.87;2.90;;;;;;;2.87;35.49;99134.69;6248391;22;20667;-85
2022/03/18 10:05:05;;;;;;;6.40;3.83;;;;;;;2.92;36.04;99134.78;6244048;22;20807;-81
2022/03/18 10:07:33;;;;;;;4.13;3.33;;;;;;;2.56;35.46;99082.94;6242558;22;20683;-81
2022/03/18 10:10:16;;;;;;;6.53;3.67;;;;;;;2.63;36.02;99085.66;6218845;22;20211;-82
2022/03/18 10:12:47;;;;;;;8.47;4.80;;;;;;;3.01;35.19;99135.81;6218641;22;20168;-81
2022/03/18 10:15:22;;;;;;;5.23;3.43;;;;;;;2.61;34.95;99051.53;6244389;22;20239;-87
2022/03/18 10:17:51;;;;;;;6.43;4.60;;;;;;;3.20;34.29;99108.81;6192071;22;20183;-83
2022/03/18 10:20:25;;;;;;;6.80;5.00;;;;;;;3.60;34.88;99134.22;6270454;22;20156;-88
2022/03/18 10:22:55;;;;;;;3.97;3.40;;;;;;;3.36;35.95;99112.50;6217119;22;20168;-82
2022/03/18 10:25:38;;;;;;;5.17;3.57;;;;;;;3.84;35.93;99138.84;6217675;22;20164;-84
2022/03/18 10:28:11;;;;;;;8.83;5.70;;;;;;;3.49;35.45;99083.66;6270972;22;20173;-87
2022/03/18 10:30:39;;;;;;;6.83;4.70;;;;;;;3.45;34.72;99098.13;6241495;22;20196;-89
2022/03/18 10:33:12;;;;;;;6.80;4.20;;;;;;;3.29;35.12;99140.56;6270638;22;20165;-89
2022/03/18 10:38:37;;;;;;;5.83;3.90;;;;;;;3.00;35.44;99082.91;6218730;22;20190;-83
2022/03/18 10:41:07;;;;;;;12.33;7.27;;;;;;;3.82;35.67;99145.63;6219561;22;20172;-84
2022/03/18 10:43:54;;;;;;;10.00;5.70;;;;;;;3.78;34.82;99133.63;6245659;22;20165;-87
2022/03/18 10:46:23;;;;;;;7.40;4.00;;;;;;;3.32;34.63;99088.53;6250256;22;20173;-82
2022/03/18 10:49:05;;;;;;;5.33;3.70;;;;;;;3.17;35.17;99076.34;6242052;22;20263;-87
2022/03/18 10:51:34;;;;;;;4.90;3.20;;;;;;;2.99;34.15;99075.19;6231665;22;20209;-85
2022/03/18 10:54:01;;;;;;;7.40;4.33;;;;;;;3.24;33.72;99078.19;6198245;22;20200;-83
2022/03/18 10:56:57;;;;;;;5.57;4.30;;;;;;;3.84;36.50;99146.53;6244539;22;20162;-83
2022/03/18 10:59:27;;;;;;;4.77;3.57;;;;;;;3.09;35.36;99042.09;6245444;22;20259;-84
2022/03/18 11:02:00;;;;;;;5.27;3.20;;;;;;;3.37;35.63;99102.28;6219587;22;20647;-85
2022/03/18 11:04:29;;;;;;;4.47;3.23;;;;;;;3.34;34.63;99091.97;6195591;22;20501;-83
2022/03/18 11:12:35;;;;;;;6.37;4.07;;;;;;;2.86;35.27;99086.94;6248949;22;20168;-84
2022/03/18 11:15:08;;;;;;;7.50;3.97;;;;;;;3.41;34.85;99121.09;6245227;22;20170;-82
2022/03/18 11:17:40;;;;;;;6.97;4.13;;;;;;;3.13;35.39;99097.63;6169557;22;20203;-80
2022/03/18 11:20:10;;;;;;;6.37;4.03;;;;;;;3.12;35.69;99075.44;6217891;22;20180;-81
2022/03/18 11:22:40;;;;;;;4.80;3.57;;;;;;;3.42;35.21;99113.44;6244267;22;20175;-83
2022/03/18 11:25:09;;;;;;;4.30;3.43;;;;;;;2.99;35.68;99103.34;6271089;22;20234;-81
2022/03/18 11:27:39;;;;;;;6.50;4.40;;;;;;;3.48;36.12;99140.84;6217435;22;20168;-85
2022/03/18 11:30:30;;;;;;;4.30;3.90;;;;;;;3.57;35.81;99135.88;6243103;22;20529;-90
2022/03/18 11:33:10;;;;;;;6.00;4.13;;;;;;;3.46;36.18;99139.97;6216941;22;20281;-82
2022/03/18 11:35:52;;;;;;;7.80;5.03;;;;;;;3.37;35.52;99127.88;6243693;22;20215;-81
2022/03/18 11:38:49;;;;;;;7.30;4.73;;;;;;;3.37;36.09;99112.53;6219286;22;20644;-86
2022/03/18 11:41:19;;;;;;;6.23;4.33;;;;;;;3.30;36.93;99091.06;6214216;22;20252;-81
2022/03/18 11:43:50;;;;;;;4.93;4.23;;;;;;;3.55;37.68;99111.94;6270908;22;20196;-84
2022/03/18 11:46:17;;;;;;;5.63;4.00;;;;;;;3.85;36.76;99113.22;6216470;22;20168;-86
2022/03/18 11:48:48;;;;;;;8.33;4.60;;;;;;;4.04;36.79;99104.09;6269391;22;20629;-82
2022/03/18 11:51:32;;;;;;;9.93;5.67;;;;;;;4.38;36.33;99115.63;6270341;22;20582;-81
2022/03/18 11:54:01;;;;;;;9.20;6.17;;;;;;;4.38;36.72;99110.50;6242507;22;20520;-81
2022/03/18 11:56:54;;;;;;;6.60;4.27;;;;;;;4.14;36.77;99100.81;6217874;22;20172;-85
2022/03/18 11:59:25;;;;;;;7.67;4.67;;;;;;;4.22;37.34;99099.22;6269553;22;20160;-82
2022/03/18 12:02:07;;;;;;;8.03;4.87;;;;;;;4.30;36.56;99099.28;6269127;22;20174;-83
2022/03/18 12:04:40;;;;;;;7.87;4.57;;;;;;;4.59;35.95;99101.34;6192606;22;20528;-82
2022/03/18 12:07:09;;;;;;;5.23;4.73;;;;;;;4.24;36.19;99094.97;6242254;22;20191;-83
2022/03/18 12:09:48;;;;;;;8.73;4.57;;;;;;;3.98;36.13;99027.09;6194652;22;20168;-85
2022/03/18 12:12:17;;;;;;;7.50;4.33;;;;;;;3.89;36.65;99034.72;6243548;22;20173;-86
2022/03/18 12:14:47;;;;;;;5.90;4.40;;;;;;;3.68;36.57;99013.94;6218106;22;20180;-82